Results By Division


Marshman® Triathlon Presented by Kinetic PT

Race Date: Sunday September 18, 2011
Description: 1/4 Mile Swim~12.5 Mile Bike~2 Mile Run
Race Category: Sprint Triathlon
# Entrants in Division: 23

Choose:
 Division
Place
Overall
Place
NameCityStateRace AgeGenderDivisionTimeBib#
View 1 4 Sturino, Jesse West Chester PA 50 M 50-54 0:57:12 188
View 2 5 Dawson, John Dorchester NJ 50 M 50-54 0:57:32 205
View 3 7 Reid, James West Chester PA 50 M 50-54 0:59:20 192
View 4 25 Fritsche, Todd Phoenixville PA 51 M 50-54 1:03:37 186
View 5 28 Stedman, Hansell Norristown, PA 54 M 50-54 1:03:50 182
View 6 31 Cannon, Robert Collegeville PA 53 M 50-54 1:04:22 181
View 7 61 Buttz, Charles Spring City PA 51 M 50-54 1:08:36 198
View 8 80 Franz, Gerard Mount Laurel NJ 51 M 50-54 1:11:26 203
View 9 87 Vanocker, David Berwyn PA 54 M 50-54 1:12:02 196
View 10 107 Leff, Todd Warrington PA 52 M 50-54 1:14:08 193
View 11 112 Pelton, Dave St Davids PA 50 M 50-54 1:14:48 458
View 12 121 Heiss, Brian West Chester PA 51 M 50-54 1:15:13 197
View 13 123 Fulginiti, V. Michael Aston PA 54 M 50-54 1:15:20 187
View 14 142 Lantzy, Robert New Hope PA 54 M 50-54 1:16:48 191
View 15 146 Captis, Thomas Downingtown PA 54 M 50-54 1:17:08 204
View 16 153 Grossman, Lenny Harleysville PA 51 M 50-54 1:17:59 200
View 17 154 Fischer, Steve Glen Mills PA 54 M 50-54 1:18:05 199
View 18 158 Koehnlein, Jim Timonium MD 52 M 50-54 1:18:14 184
View 19 165 Dever, Timothy West Chester PA 50 M 50-54 1:18:47 195
View 20 167 Hoey, Peter Doylestown PA 50 M 50-54 1:18:48 459
View 21 235 Van Wormer, Phil Wilmington DE 53 M 50-54 1:24:16 202
View 22 287 Sutton, Tom Chalfont PA 50 M 50-54 1:30:54 201
View 23 329 Saunders, Sean Malvern PA 52 M 50-54 1:35:36 194